createdAt,value
2022-08-14T00:02:02.013Z,20.50
2022-08-14T00:04:35.656Z,20.50
2022-08-14T00:07:10.812Z,20.50
2022-08-14T00:09:55.300Z,20.40
2022-08-14T00:12:33.900Z,20.40
2022-08-14T00:15:17.065Z,20.30
2022-08-14T00:17:48.064Z,21.20
2022-08-14T00:20:30.406Z,20.30
2022-08-14T00:23:08.551Z,20.20
2022-08-14T00:25:42.961Z,20.20
2022-08-14T00:28:15.211Z,20.10
2022-08-14T00:30:47.455Z,20.00
2022-08-14T00:33:16.472Z,22.40
2022-08-14T00:36:39.304Z,19.90
2022-08-14T00:38:35.180Z,22.10
2022-08-14T00:41:04.865Z,19.90
2022-08-14T00:43:32.902Z,23.00
2022-08-14T00:46:05.217Z,19.80
2022-08-14T00:48:38.405Z,19.80
2022-08-14T00:51:10.228Z,19.70
2022-08-14T00:53:39.999Z,19.70
2022-08-14T00:56:11.452Z,19.70
2022-08-14T00:58:45.156Z,19.70
2022-08-14T01:01:18.775Z,19.70
2022-08-14T01:03:52.834Z,19.80
2022-08-14T01:06:23.471Z,19.80
2022-08-14T01:08:59.764Z,19.70
2022-08-14T01:11:31.517Z,19.70
2022-08-14T01:14:04.838Z,19.70
2022-08-14T01:16:53.026Z,19.70
2022-08-14T01:19:39.002Z,19.60
2022-08-14T01:22:12.283Z,19.50
2022-08-14T01:24:43.595Z,19.40
2022-08-14T01:27:18.044Z,19.50
2022-08-14T01:30:03.159Z,19.50
2022-08-14T01:32:37.706Z,20.10
2022-08-14T01:35:18.701Z,19.50
2022-08-14T01:38:00.620Z,19.50
2022-08-14T01:40:33.159Z,19.50
2022-08-14T01:43:08.740Z,19.40
2022-08-14T01:45:40.573Z,19.40
2022-08-14T01:48:13.611Z,19.40
2022-08-14T01:50:44.220Z,19.40
2022-08-14T01:53:14.594Z,19.40
2022-08-14T01:55:42.584Z,19.40
2022-08-14T01:58:20.288Z,19.40
2022-08-14T02:00:54.424Z,19.40
2022-08-14T02:03:24.129Z,19.40
2022-08-14T02:05:52.035Z,19.40
2022-08-14T02:08:22.392Z,19.40
2022-08-14T02:11:23.704Z,19.30
2022-08-14T02:13:56.578Z,19.40
2022-08-14T02:16:26.556Z,19.30
2022-08-14T02:18:56.528Z,19.20
2022-08-14T02:21:27.248Z,19.20
2022-08-14T02:23:57.392Z,19.20
2022-08-14T02:26:30.638Z,19.30
2022-08-14T02:29:00.986Z,19.30
2022-08-14T02:31:42.096Z,19.70
2022-08-14T02:34:22.293Z,22.50
2022-08-14T02:37:04.831Z,19.30
2022-08-14T02:39:39.992Z,19.30
2022-08-14T02:42:13.054Z,19.30
2022-08-14T02:44:49.091Z,19.30
2022-08-14T02:47:20.947Z,19.20
2022-08-14T02:49:56.669Z,19.20
2022-08-14T02:52:56.526Z,19.20
2022-08-14T02:55:15.538Z,19.20
2022-08-14T02:57:51.780Z,19.20
2022-08-14T03:00:27.248Z,19.20
2022-08-14T03:02:58.739Z,19.20
2022-08-14T03:05:32.890Z,19.30
2022-08-14T03:08:07.958Z,19.30
2022-08-14T03:10:41.958Z,19.30
2022-08-14T03:13:19.424Z,19.30
2022-08-14T03:18:30.751Z,19.30
2022-08-14T03:21:05.928Z,19.20
2022-08-14T03:23:37.976Z,19.20
2022-08-14T03:26:12.913Z,19.10
2022-08-14T03:28:47.902Z,19.10
2022-08-14T03:31:20.006Z,19.10
2022-08-14T03:33:51.777Z,19.00
2022-08-14T03:37:37.938Z,21.70
2022-08-14T03:39:22.894Z,20.80
2022-08-14T03:41:55.461Z,18.90
2022-08-14T03:45:26.419Z,18.90
2022-08-14T03:47:15.395Z,18.80
2022-08-14T03:49:44.729Z,18.80
2022-08-14T03:52:28.235Z,19.40
2022-08-14T03:55:06.515Z,22.00
2022-08-14T03:57:37.232Z,18.80
2022-08-14T04:00:13.531Z,18.80
2022-08-14T04:02:47.345Z,18.80
2022-08-14T04:05:21.286Z,18.80
2022-08-14T04:08:08.459Z,21.30
2022-08-14T04:10:39.446Z,21.70
2022-08-14T04:13:08.831Z,18.90
2022-08-14T04:15:56.658Z,18.90
2022-08-14T04:18:25.363Z,18.90
2022-08-14T04:20:55.346Z,19.00
2022-08-14T04:23:29.930Z,19.00
2022-08-14T04:26:02.726Z,19.10
2022-08-14T04:29:02.144Z,19.10
2022-08-14T04:32:56.678Z,19.20
2022-08-14T04:34:11.915Z,19.20
2022-08-14T04:37:07.375Z,19.30
2022-08-14T04:39:57.309Z,19.20
2022-08-14T04:42:47.281Z,19.30
2022-08-14T04:45:23.506Z,19.30
2022-08-14T04:48:10.367Z,19.30
2022-08-14T04:50:44.518Z,19.40
2022-08-14T04:53:15.428Z,19.40
2022-08-14T04:55:45.090Z,19.40
2022-08-14T04:58:21.706Z,19.50
2022-08-14T05:01:03.078Z,19.50
2022-08-14T05:03:33.296Z,22.30
2022-08-14T05:06:03.115Z,21.10
2022-08-14T05:08:43.616Z,19.80
2022-08-14T05:11:20.289Z,20.10
2022-08-14T05:16:38.882Z,20.80
2022-08-14T05:19:17.579Z,18.80
2022-08-14T05:22:01.185Z,23.40
2022-08-14T05:24:44.328Z,22.00
2022-08-14T05:27:12.251Z,21.70
2022-08-14T05:29:44.746Z,21.90
2022-08-14T05:32:15.760Z,24.60
2022-08-14T05:34:46.117Z,22.00
2022-08-14T05:37:15.422Z,21.90
2022-08-14T05:39:44.087Z,22.00
2022-08-14T05:42:22.062Z,21.90
2022-08-14T05:44:55.880Z,22.00
2022-08-14T05:47:28.982Z,22.10
2022-08-14T05:50:17.068Z,22.10
2022-08-14T05:52:45.729Z,22.20
2022-08-14T05:55:13.986Z,22.20
2022-08-14T05:57:49.668Z,22.30
2022-08-14T06:00:25.041Z,22.40
2022-08-14T06:03:00.532Z,22.60
2022-08-14T06:05:29.679Z,22.70
2022-08-14T06:07:58.502Z,23.00
2022-08-14T06:10:28.351Z,23.20
2022-08-14T06:12:58.159Z,23.20
2022-08-14T06:15:30.110Z,23.30
2022-08-14T06:18:01.759Z,23.50
2022-08-14T06:20:30.506Z,23.50
2022-08-14T06:22:59.344Z,23.60
2022-08-14T06:25:28.036Z,25.20
2022-08-14T06:27:56.008Z,23.80
2022-08-14T06:30:30.261Z,23.90
2022-08-14T06:33:18.107Z,23.90
2022-08-14T06:35:47.056Z,24.00
2022-08-14T06:38:17.893Z,24.20
2022-08-14T06:40:46.273Z,24.30
2022-08-14T06:43:15.385Z,24.40
2022-08-14T06:45:50.356Z,24.60
2022-08-14T06:48:25.255Z,26.20
2022-08-14T06:50:54.556Z,25.30
2022-08-14T06:53:28.196Z,25.50
2022-08-14T06:56:01.910Z,25.90
2022-08-14T06:58:32.049Z,26.30
2022-08-14T07:01:25.048Z,28.00
2022-08-14T07:04:23.137Z,27.10
2022-08-14T07:06:55.584Z,28.10
2022-08-14T07:09:40.421Z,29.00
2022-08-14T07:12:35.999Z,28.70
2022-08-14T07:15:05.728Z,28.50
2022-08-14T07:17:34.474Z,28.60
2022-08-14T07:20:07.986Z,28.80
2022-08-14T07:22:49.964Z,28.90
2022-08-14T07:25:32.371Z,30.70
2022-08-14T07:28:01.210Z,30.10
2022-08-14T07:30:34.756Z,29.00
2022-08-14T07:33:03.622Z,29.00
2022-08-14T07:35:43.063Z,27.90
2022-08-14T07:38:22.356Z,28.80
2022-08-14T07:40:53.077Z,28.80
2022-08-14T07:43:21.674Z,28.80
2022-08-14T07:45:51.040Z,29.00
2022-08-14T07:48:24.796Z,29.10
2022-08-14T07:51:03.165Z,29.30
2022-08-14T07:53:40.451Z,29.30
2022-08-14T07:56:21.696Z,29.50
2022-08-14T07:58:58.993Z,29.60
2022-08-14T08:01:29.983Z,29.60
2022-08-14T08:04:00.422Z,29.70
2022-08-14T08:06:30.799Z,29.50
2022-08-14T08:09:01.222Z,29.70
2022-08-14T08:11:34.805Z,30.40
2022-08-14T08:14:10.658Z,30.10
2022-08-14T08:16:46.709Z,29.90
2022-08-14T08:19:19.320Z,30.00
2022-08-14T08:21:48.907Z,30.20
2022-08-14T08:24:19.854Z,30.20
2022-08-14T08:26:50.422Z,30.00
2022-08-14T08:29:28.328Z,29.80
2022-08-14T08:32:01.923Z,29.80
2022-08-14T08:34:45.932Z,29.80
2022-08-14T08:37:16.270Z,30.10
2022-08-14T08:40:03.447Z,30.40
2022-08-14T08:42:41.457Z,30.90
2022-08-14T08:45:17.422Z,31.00
2022-08-14T08:47:46.536Z,31.10
2022-08-14T08:50:31.486Z,31.20
2022-08-14T08:53:02.619Z,31.00
2022-08-14T08:55:35.667Z,30.80
2022-08-14T08:58:16.197Z,30.60
2022-08-14T09:00:49.056Z,30.80
2022-08-14T09:03:20.501Z,30.90
2022-08-14T09:05:54.033Z,31.00
2022-08-14T09:08:31.215Z,31.20
2022-08-14T09:11:18.890Z,31.60
2022-08-14T09:13:49.370Z,31.80
2022-08-14T09:16:21.132Z,31.90
2022-08-14T09:18:50.087Z,31.90
2022-08-14T09:21:24.585Z,31.70
2022-08-14T09:24:30.184Z,32.20
2022-08-14T09:26:49.408Z,32.40
2022-08-14T09:29:22.818Z,32.60
2022-08-14T09:31:57.626Z,32.60
2022-08-14T09:35:10.565Z,32.80
2022-08-14T09:37:55.179Z,33.00
2022-08-14T09:40:32.784Z,33.30
2022-08-14T09:43:13.010Z,33.40
2022-08-14T09:45:52.620Z,33.20
2022-08-14T09:48:29.958Z,33.00
2022-08-14T09:54:13.048Z,32.60
2022-08-14T09:56:30.871Z,32.60
2022-08-14T09:59:10.671Z,32.70
2022-08-14T10:02:19.618Z,33.00
2022-08-14T10:04:50.041Z,33.20
2022-08-14T10:07:18.230Z,33.70
2022-08-14T10:10:00.202Z,33.70
2022-08-14T10:12:52.979Z,34.40
2022-08-14T10:15:25.119Z,33.70
2022-08-14T10:18:08.004Z,33.00
2022-08-14T10:20:41.919Z,33.40
2022-08-14T10:23:16.206Z,33.10
2022-08-14T10:25:47.620Z,32.90
2022-08-14T10:28:39.212Z,32.00
2022-08-14T10:31:17.836Z,31.80
2022-08-14T10:34:00.253Z,31.70
2022-08-14T10:36:35.069Z,32.30
2022-08-14T10:39:06.785Z,32.90
2022-08-14T10:41:46.702Z,33.50
2022-08-14T10:44:24.962Z,34.10
2022-08-14T10:47:40.287Z,34.80
2022-08-14T10:49:58.411Z,35.20
2022-08-14T10:52:29.767Z,35.20
2022-08-14T10:55:08.159Z,35.10
2022-08-14T10:57:48.225Z,35.50
2022-08-14T11:00:29.889Z,35.80
2022-08-14T11:03:09.287Z,36.30
2022-08-14T11:05:42.762Z,36.10
2022-08-14T11:08:12.752Z,35.90
2022-08-14T11:10:44.286Z,36.00
2022-08-14T11:13:18.590Z,36.20
2022-08-14T11:15:48.863Z,36.40
2022-08-14T11:18:20.317Z,36.40
2022-08-14T11:20:55.363Z,36.10
2022-08-14T11:23:27.852Z,35.90
2022-08-14T11:26:10.358Z,35.80
2022-08-14T11:28:48.189Z,36.20
2022-08-14T11:31:21.183Z,36.60
2022-08-14T11:33:54.029Z,36.00
2022-08-14T11:36:24.185Z,35.20
2022-08-14T11:39:23.145Z,35.30
2022-08-14T11:42:55.673Z,35.60
2022-08-14T11:44:53.741Z,35.10
2022-08-14T11:47:26.017Z,35.50
2022-08-14T11:49:54.403Z,35.00
2022-08-14T11:52:22.432Z,35.30
2022-08-14T11:54:58.934Z,35.70
2022-08-14T11:57:27.574Z,36.30
2022-08-14T12:00:08.459Z,36.60
2022-08-14T12:03:03.194Z,37.00
2022-08-14T12:05:33.167Z,37.40
2022-08-14T12:08:11.991Z,38.00
2022-08-14T12:10:43.334Z,38.30
2022-08-14T12:13:13.921Z,38.40
2022-08-14T12:15:51.410Z,37.50
2022-08-14T12:18:30.266Z,36.60
2022-08-14T12:20:59.977Z,36.50
2022-08-14T12:23:28.105Z,35.80
2022-08-14T12:26:31.632Z,35.30
2022-08-14T12:28:59.348Z,35.40
2022-08-14T12:31:28.149Z,36.20
2022-08-14T12:34:10.223Z,36.60
2022-08-14T12:36:38.670Z,37.10
2022-08-14T12:39:19.499Z,37.40
2022-08-14T12:41:53.903Z,37.30
2022-08-14T12:44:31.043Z,37.40
2022-08-14T12:47:05.045Z,37.20
2022-08-14T12:49:35.718Z,36.70
2022-08-14T12:52:16.898Z,36.70
2022-08-14T12:54:57.564Z,36.70
2022-08-14T12:57:39.314Z,35.80
2022-08-14T13:00:23.576Z,34.80
2022-08-14T13:02:56.793Z,34.20
2022-08-14T13:05:29.480Z,33.50
2022-08-14T13:07:59.132Z,32.80
2022-08-14T13:10:47.568Z,32.30
2022-08-14T13:13:17.828Z,32.20
2022-08-14T13:15:46.677Z,32.00
2022-08-14T13:18:15.658Z,32.10
2022-08-14T13:20:51.368Z,32.20
2022-08-14T13:23:31.680Z,32.20
2022-08-14T13:26:00.848Z,33.00
2022-08-14T13:28:33.632Z,32.40
2022-08-14T13:31:08.939Z,34.10
2022-08-14T13:33:40.832Z,34.70
2022-08-14T13:36:23.706Z,35.60
2022-08-14T13:38:53.802Z,36.50
2022-08-14T13:41:31.473Z,37.20
2022-08-14T13:44:00.554Z,37.60
2022-08-14T13:46:28.895Z,37.80
2022-08-14T13:48:59.796Z,38.80
2022-08-14T13:51:36.919Z,38.90
2022-08-14T13:54:10.225Z,38.60
2022-08-14T13:56:41.029Z,38.60
2022-08-14T13:59:10.355Z,38.40
2022-08-14T14:01:43.458Z,38.30
2022-08-14T14:04:18.839Z,36.50
2022-08-14T14:06:52.033Z,38.10
2022-08-14T14:09:27.005Z,37.80
2022-08-14T14:12:01.225Z,37.90
2022-08-14T14:14:51.125Z,38.00
2022-08-14T14:17:24.478Z,37.20
2022-08-14T14:19:53.401Z,36.90
2022-08-14T14:22:35.495Z,35.90
2022-08-14T14:25:14.406Z,34.90
2022-08-14T14:27:53.535Z,34.10
2022-08-14T14:30:52.368Z,34.20
2022-08-14T14:33:44.117Z,34.90
2022-08-14T14:36:02.572Z,36.00
2022-08-14T14:38:35.373Z,36.30
2022-08-14T14:41:05.596Z,37.10
2022-08-14T14:43:35.590Z,36.90
2022-08-14T14:46:09.258Z,37.10
2022-08-14T14:48:46.712Z,36.80
2022-08-14T14:51:22.506Z,36.80
2022-08-14T14:53:52.377Z,36.90
2022-08-14T14:56:49.304Z,37.20
2022-08-14T14:59:09.392Z,37.30
2022-08-14T15:01:38.785Z,37.10
2022-08-14T15:04:20.154Z,36.80
2022-08-14T15:06:48.427Z,36.70
2022-08-14T15:09:18.410Z,36.10
2022-08-14T15:11:48.276Z,35.10
2022-08-14T15:14:57.216Z,34.20
2022-08-14T15:17:06.468Z,33.50
2022-08-14T15:19:34.812Z,33.20
2022-08-14T15:22:02.716Z,33.00
2022-08-14T15:24:32.178Z,32.50
2022-08-14T15:27:00.557Z,32.50
2022-08-14T15:29:28.922Z,32.80
2022-08-14T15:31:59.001Z,33.40
2022-08-14T15:34:44.257Z,34.00
2022-08-14T15:37:16.900Z,34.40
2022-08-14T15:39:46.519Z,34.80
2022-08-14T15:42:16.755Z,35.10
2022-08-14T15:44:57.936Z,35.40
2022-08-14T15:47:31.453Z,35.40
2022-08-14T15:50:00.604Z,35.40
2022-08-14T15:52:32.826Z,35.60
2022-08-14T15:55:06.749Z,36.00
2022-08-14T15:57:36.316Z,36.60
2022-08-14T16:00:40.486Z,36.90
2022-08-14T16:03:14.235Z,36.70
2022-08-14T16:05:46.089Z,36.20
2022-08-14T16:08:27.472Z,36.30
2022-08-14T16:11:01.618Z,35.50
2022-08-14T16:13:39.601Z,35.10
2022-08-14T16:16:48.143Z,35.30
2022-08-14T16:19:10.539Z,34.10
2022-08-14T16:21:40.965Z,33.80
2022-08-14T16:24:32.989Z,33.50
2022-08-14T16:27:03.428Z,33.40
2022-08-14T16:29:34.792Z,33.80
2022-08-14T16:32:33.262Z,33.00
2022-08-14T16:34:54.947Z,32.60
2022-08-14T16:40:13.585Z,31.90
2022-08-14T16:40:25.497Z,32.10
2022-08-14T16:43:04.674Z,31.70
2022-08-14T16:45:34.121Z,31.40
2022-08-14T16:48:57.612Z,31.20
2022-08-14T16:51:06.675Z,31.00
2022-08-14T16:53:36.907Z,31.00
2022-08-14T16:56:22.928Z,31.00
2022-08-14T16:59:12.297Z,31.10
2022-08-14T17:01:42.516Z,31.10
2022-08-14T17:04:14.851Z,31.00
2022-08-14T17:06:55.055Z,31.00
2022-08-14T17:09:34.757Z,30.90
2022-08-14T17:12:07.916Z,30.80
2022-08-14T17:15:01.583Z,30.80
2022-08-14T17:17:44.083Z,30.90
2022-08-14T17:20:53.682Z,31.10
2022-08-14T17:23:02.747Z,31.30
2022-08-14T17:25:39.621Z,31.50
2022-08-14T17:28:52.462Z,31.50
2022-08-14T17:31:04.234Z,31.50
2022-08-14T17:33:33.790Z,31.80
2022-08-14T17:36:21.330Z,31.40
2022-08-14T17:39:06.699Z,31.30
2022-08-14T17:41:37.824Z,31.20
2022-08-14T17:44:33.479Z,31.10
2022-08-14T17:47:13.018Z,31.10
2022-08-14T17:49:46.130Z,31.10
2022-08-14T17:52:17.217Z,31.00
2022-08-14T17:54:53.009Z,30.90
2022-08-14T17:57:35.415Z,30.90
2022-08-14T18:00:12.963Z,30.70
2022-08-14T18:02:50.345Z,30.50
2022-08-14T18:05:23.074Z,30.50
2022-08-14T18:08:31.122Z,30.30
2022-08-14T18:10:55.908Z,30.20
2022-08-14T18:13:51.572Z,30.10
2022-08-14T18:16:20.249Z,29.90
2022-08-14T18:18:52.586Z,29.70
2022-08-14T18:21:42.735Z,29.40
2022-08-14T18:24:19.928Z,29.10
2022-08-14T18:27:02.072Z,28.90
2022-08-14T18:29:31.613Z,28.70
2022-08-14T18:32:00.211Z,28.50
2022-08-14T18:34:37.707Z,28.40
2022-08-14T18:37:17.294Z,29.20
2022-08-14T18:40:01.186Z,28.00
2022-08-14T18:42:45.904Z,27.80
2022-08-14T18:45:19.006Z,27.60
2022-08-14T18:48:50.141Z,27.40
2022-08-14T18:51:45.220Z,27.20
2022-08-14T18:54:33.123Z,27.10
2022-08-14T18:57:03.402Z,27.00
2022-08-14T18:59:39.325Z,26.90
2022-08-14T19:02:43.323Z,26.70
2022-08-14T19:05:12.350Z,26.50
2022-08-14T19:07:44.376Z,26.50
2022-08-14T19:10:31.792Z,26.40
2022-08-14T19:13:12.095Z,26.20
2022-08-14T19:15:43.643Z,26.10
2022-08-14T19:18:26.202Z,26.00
2022-08-14T19:20:58.213Z,25.10
2022-08-14T19:23:43.995Z,25.80
2022-08-14T19:26:35.324Z,25.70
2022-08-14T19:29:38.389Z,25.60
2022-08-14T19:32:36.844Z,25.50
2022-08-14T19:35:16.919Z,25.40
2022-08-14T19:37:52.610Z,25.40
2022-08-14T19:40:34.354Z,27.00
2022-08-14T19:43:03.398Z,25.20
2022-08-14T19:45:37.882Z,25.00
2022-08-14T19:48:12.101Z,24.80
2022-08-14T19:50:41.071Z,24.80
2022-08-14T19:53:12.006Z,24.70
2022-08-14T19:55:58.810Z,24.70
2022-08-14T19:58:55.116Z,24.60
2022-08-14T20:01:37.004Z,24.40
2022-08-14T20:04:46.726Z,24.50
2022-08-14T20:06:57.095Z,24.40
2022-08-14T20:11:11.522Z,24.40
2022-08-14T20:12:28.688Z,24.40
2022-08-14T20:15:08.700Z,24.40
2022-08-14T20:17:40.150Z,24.30
2022-08-14T20:20:21.001Z,24.30
2022-08-14T20:23:11.331Z,24.30
2022-08-14T20:25:45.476Z,24.30
2022-08-14T20:28:33.057Z,24.20
2022-08-14T20:31:16.070Z,26.60
2022-08-14T20:34:06.612Z,23.60
2022-08-14T20:36:38.972Z,24.00
2022-08-14T20:39:15.617Z,23.90
2022-08-14T20:41:51.410Z,23.80
2022-08-14T20:44:41.927Z,25.10
2022-08-14T20:47:15.070Z,23.70
2022-08-14T20:49:43.066Z,23.60
2022-08-14T20:52:19.254Z,23.70
2022-08-14T20:54:51.491Z,23.60
2022-08-14T20:57:20.102Z,23.60
2022-08-14T20:59:52.956Z,23.70
2022-08-14T21:02:38.437Z,23.60
2022-08-14T21:05:22.017Z,23.20
2022-08-14T21:08:09.899Z,23.60
2022-08-14T21:10:51.111Z,23.60
2022-08-14T21:14:09.121Z,23.60
2022-08-14T21:16:34.328Z,23.50
2022-08-14T21:19:00.004Z,23.50
2022-08-14T21:21:41.393Z,23.40
2022-08-14T21:24:38.965Z,23.40
2022-08-14T21:27:12.411Z,23.40
2022-08-14T21:29:53.945Z,24.10
2022-08-14T21:32:34.876Z,23.30
2022-08-14T21:35:08.140Z,23.30
2022-08-14T21:37:43.624Z,23.20
2022-08-14T21:40:40.018Z,23.20
2022-08-14T21:43:00.534Z,23.10
2022-08-14T21:45:28.416Z,23.10
2022-08-14T21:47:56.748Z,22.90
2022-08-14T21:50:39.500Z,22.90
2022-08-14T21:53:15.370Z,22.90
2022-08-14T21:55:43.698Z,22.80
2022-08-14T21:58:52.569Z,22.80
2022-08-14T22:00:59.514Z,22.80
2022-08-14T22:03:27.472Z,23.10
2022-08-14T22:06:05.191Z,23.40
2022-08-14T22:08:38.436Z,23.70
2022-08-14T22:11:07.279Z,24.10
2022-08-14T22:13:46.423Z,24.30
2022-08-14T22:16:59.791Z,24.50
2022-08-14T22:19:03.493Z,25.00
2022-08-14T22:21:33.463Z,24.70
2022-08-14T22:24:02.532Z,24.70
2022-08-14T22:26:44.730Z,24.80
2022-08-14T22:29:14.517Z,24.80
2022-08-14T22:31:43.878Z,24.80
2022-08-14T22:34:15.183Z,24.80
2022-08-14T22:36:50.471Z,25.90
2022-08-14T22:39:20.390Z,24.80
2022-08-14T22:42:20.902Z,24.70
2022-08-14T22:44:49.573Z,24.60
2022-08-14T22:47:17.497Z,24.60
2022-08-14T22:50:30.630Z,24.50
2022-08-14T22:52:49.457Z,24.40
2022-08-14T22:55:17.844Z,24.40
2022-08-14T22:57:45.770Z,24.40
2022-08-14T23:00:19.890Z,24.40
2022-08-14T23:02:56.648Z,24.40
2022-08-14T23:05:38.816Z,25.50
2022-08-14T23:08:59.798Z,24.50
2022-08-14T23:11:01.826Z,24.40
2022-08-14T23:13:31.218Z,24.40
2022-08-14T23:15:59.185Z,24.50
2022-08-14T23:18:29.422Z,24.40
2022-08-14T23:20:58.277Z,24.40
2022-08-14T23:23:27.781Z,24.40
2022-08-14T23:25:59.322Z,25.00
2022-08-14T23:28:58.254Z,26.50
2022-08-14T23:31:35.685Z,24.10
2022-08-14T23:34:06.561Z,24.30
2022-08-14T23:36:38.119Z,23.80
2022-08-14T23:39:29.993Z,23.70
2022-08-14T23:42:02.360Z,23.50
2022-08-14T23:44:35.211Z,23.90
2022-08-14T23:47:11.746Z,23.30
2022-08-14T23:50:01.094Z,23.10
2022-08-14T23:53:04.033Z,23.40
2022-08-14T23:55:26.202Z,23.00
2022-08-14T23:57:57.306Z,23.00
